sensor_id;sensor_type;location;lat;lon;timestamp;pressure;altitude;pressure_sealevel;temperature;humidity
63715;BME280;49858;48.956;9.076;2023-09-19T00:00:39;98307.69;;;18.41;100.00
63715;BME280;49858;48.956;9.076;2023-09-19T00:03:08;98317.72;;;18.35;100.00
63715;BME280;49858;48.956;9.076;2023-09-19T00:05:37;98319.50;;;18.49;100.00
63715;BME280;49858;48.956;9.076;2023-09-19T00:08:05;98329.41;;;18.84;100.00
63715;BME280;49858;48.956;9.076;2023-09-19T00:10:34;98333.97;;;18.71;100.00
63715;BME280;49858;48.956;9.076;2023-09-19T00:13:04;98328.66;;;19.54;100.00
63715;BME280;49858;48.956;9.076;2023-09-19T00:15:36;98338.28;;;19.96;100.00
63715;BME280;49858;48.956;9.076;2023-09-19T00:18:05;98336.66;;;20.75;100.00
63715;BME280;49858;48.956;9.076;2023-09-19T00:20:35;98348.63;;;21.11;100.00
63715;BME280;49858;48.956;9.076;2023-09-19T00:23:06;98340.78;;;21.55;100.00
63715;BME280;49858;48.956;9.076;2023-09-19T00:25:35;98349.06;;;21.26;100.00
63715;BME280;49858;48.956;9.076;2023-09-19T00:28:05;98350.09;;;21.00;100.00
63715;BME280;49858;48.956;9.076;2023-09-19T00:30:34;98351.41;;;20.19;100.00
63715;BME280;49858;48.956;9.076;2023-09-19T00:33:03;98362.59;;;18.71;100.00
63715;BME280;49858;48.956;9.076;2023-09-19T00:35:33;98361.69;;;18.17;100.00
63715;BME280;49858;48.956;9.076;2023-09-19T00:38:01;98360.78;;;18.27;100.00
63715;BME280;49858;48.956;9.076;2023-09-19T00:40:30;98374.88;;;18.43;100.00
63715;BME280;49858;48.956;9.076;2023-09-19T00:42:59;98363.38;;;18.41;100.00
63715;BME280;49858;48.956;9.076;2023-09-19T00:45:29;98374.88;;;18.43;100.00
63715;BME280;49858;48.956;9.076;2023-09-19T00:48:00;98377.75;;;19.01;100.00
63715;BME280;49858;48.956;9.076;2023-09-19T00:50:30;98367.63;;;19.10;100.00
63715;BME280;49858;48.956;9.076;2023-09-19T00:52:59;98367.50;;;19.18;100.00
63715;BME280;49858;48.956;9.076;2023-09-19T00:55:28;98365.59;;;19.85;100.00
63715;BME280;49858;48.956;9.076;2023-09-19T00:57:59;98358.78;;;20.49;100.00
63715;BME280;49858;48.956;9.076;2023-09-19T01:00:29;98364.28;;;20.73;100.00
63715;BME280;49858;48.956;9.076;2023-09-19T01:02:59;98368.06;;;20.82;100.00
63715;BME280;49858;48.956;9.076;2023-09-19T01:05:27;98369.78;;;21.29;100.00
63715;BME280;49858;48.956;9.076;2023-09-19T01:07:56;98369.78;;;21.29;100.00
63715;BME280;49858;48.956;9.076;2023-09-19T01:10:25;98369.69;;;21.16;100.00
63715;BME280;49858;48.956;9.076;2023-09-19T01:13:01;98380.91;;;20.60;100.00
63715;BME280;49858;48.956;9.076;2023-09-19T01:15:40;98381.06;;;21.09;100.00
63715;BME280;49858;48.956;9.076;2023-09-19T01:18:16;98393.31;;;20.39;100.00
63715;BME280;49858;48.956;9.076;2023-09-19T01:20:53;98385.94;;;20.49;100.00
63715;BME280;49858;48.956;9.076;2023-09-19T01:23:39;98388.22;;;20.74;100.00
63715;BME280;49858;48.956;9.076;2023-09-19T01:26:30;98388.22;;;20.14;100.00
63715;BME280;49858;48.956;9.076;2023-09-19T01:29:13;98402.22;;;20.54;100.00
63715;BME280;49858;48.956;9.076;2023-09-19T01:31:48;98393.06;;;20.10;100.00
63715;BME280;49858;48.956;9.076;2023-09-19T01:34:17;98398.50;;;19.74;100.00
63715;BME280;49858;48.956;9.076;2023-09-19T01:36:45;98398.72;;;20.06;100.00
63715;BME280;49858;48.956;9.076;2023-09-19T01:39:13;98403.75;;;19.45;100.00
63715;BME280;49858;48.956;9.076;2023-09-19T01:41:54;98407.81;;;19.13;100.00
63715;BME280;49858;48.956;9.076;2023-09-19T01:44:30;98405.69;;;19.95;100.00
63715;BME280;49858;48.956;9.076;2023-09-19T01:47:04;98406.59;;;20.31;100.00
63715;BME280;49858;48.956;9.076;2023-09-19T01:49:44;98402.25;;;20.90;100.00
63715;BME280;49858;48.956;9.076;2023-09-19T01:52:20;98410.13;;;21.11;100.00
63715;BME280;49858;48.956;9.076;2023-09-19T01:54:51;98411.66;;;20.80;100.00
63715;BME280;49858;48.956;9.076;2023-09-19T01:57:22;98419.53;;;20.85;100.00
63715;BME280;49858;48.956;9.076;2023-09-19T02:00:00;98420.50;;;20.35;100.00
63715;BME280;49858;48.956;9.076;2023-09-19T02:02:40;98422.69;;;20.67;100.00
63715;BME280;49858;48.956;9.076;2023-09-19T02:05:11;98427.31;;;20.34;100.00
63715;BME280;49858;48.956;9.076;2023-09-19T02:07:39;98426.53;;;19.39;100.00
63715;BME280;49858;48.956;9.076;2023-09-19T02:10:07;98429.38;;;19.63;100.00
63715;BME280;49858;48.956;9.076;2023-09-19T02:12:38;98428.94;;;19.64;100.00
63715;BME280;49858;48.956;9.076;2023-09-19T02:15:07;98411.78;;;20.33;100.00
63715;BME280;49858;48.956;9.076;2023-09-19T02:17:35;98423.31;;;19.41;100.00
63715;BME280;49858;48.956;9.076;2023-09-19T02:20:07;98419.59;;;19.98;100.00
63715;BME280;49858;48.956;9.076;2023-09-19T02:22:36;98436.13;;;19.38;100.00
63715;BME280;49858;48.956;9.076;2023-09-19T02:25:06;98423.28;;;19.72;100.00
63715;BME280;49858;48.956;9.076;2023-09-19T02:27:35;98431.41;;;19.05;100.00
63715;BME280;49858;48.956;9.076;2023-09-19T02:30:04;98435.56;;;18.93;100.00
63715;BME280;49858;48.956;9.076;2023-09-19T02:32:33;98437.13;;;18.94;100.00
63715;BME280;49858;48.956;9.076;2023-09-19T02:35:08;98439.00;;;19.31;100.00
63715;BME280;49858;48.956;9.076;2023-09-19T02:37:38;98437.88;;;19.52;100.00
63715;BME280;49858;48.956;9.076;2023-09-19T02:40:07;98433.94;;;19.77;100.00
63715;BME280;49858;48.956;9.076;2023-09-19T02:42:46;98437.63;;;19.94;100.00
63715;BME280;49858;48.956;9.076;2023-09-19T02:45:17;98438.66;;;20.03;100.00
63715;BME280;49858;48.956;9.076;2023-09-19T02:47:48;98448.53;;;19.34;100.00
63715;BME280;49858;48.956;9.076;2023-09-19T02:50:20;98448.78;;;19.43;100.00
63715;BME280;49858;48.956;9.076;2023-09-19T02:52:48;98449.91;;;19.49;100.00
63715;BME280;49858;48.956;9.076;2023-09-19T02:55:17;98449.16;;;19.72;100.00
63715;BME280;49858;48.956;9.076;2023-09-19T02:57:49;98451.84;;;20.23;100.00
63715;BME280;49858;48.956;9.076;2023-09-19T03:00:19;98445.44;;;20.26;100.00
63715;BME280;49858;48.956;9.076;2023-09-19T03:02:48;98453.59;;;19.70;100.00
63715;BME280;49858;48.956;9.076;2023-09-19T03:05:17;98464.69;;;19.46;100.00
63715;BME280;49858;48.956;9.076;2023-09-19T03:07:47;98459.66;;;19.64;100.00
63715;BME280;49858;48.956;9.076;2023-09-19T03:10:17;98462.91;;;20.30;100.00
63715;BME280;49858;48.956;9.076;2023-09-19T03:12:46;98463.50;;;20.41;100.00
63715;BME280;49858;48.956;9.076;2023-09-19T03:15:14;98465.75;;;20.26;100.00
63715;BME280;49858;48.956;9.076;2023-09-19T03:17:47;98467.00;;;20.25;100.00
63715;BME280;49858;48.956;9.076;2023-09-19T03:20:19;98475.56;;;20.14;100.00
63715;BME280;49858;48.956;9.076;2023-09-19T03:22:50;98465.47;;;20.21;100.00
63715;BME280;49858;48.956;9.076;2023-09-19T03:25:19;98468.22;;;20.24;100.00
63715;BME280;49858;48.956;9.076;2023-09-19T03:27:50;98463.53;;;19.94;100.00
63715;BME280;49858;48.956;9.076;2023-09-19T03:30:20;98463.69;;;19.87;100.00
63715;BME280;49858;48.956;9.076;2023-09-19T03:32:49;98473.00;;;19.77;100.00
63715;BME280;49858;48.956;9.076;2023-09-19T03:35:18;98486.69;;;19.40;100.00
63715;BME280;49858;48.956;9.076;2023-09-19T03:37:47;98475.63;;;18.72;100.00
63715;BME280;49858;48.956;9.076;2023-09-19T03:40:18;98482.72;;;18.01;100.00
63715;BME280;49858;48.956;9.076;2023-09-19T03:42:47;98491.97;;;17.87;100.00
63715;BME280;49858;48.956;9.076;2023-09-19T03:45:15;98490.06;;;17.77;100.00
63715;BME280;49858;48.956;9.076;2023-09-19T03:47:48;98487.47;;;18.01;100.00
63715;BME280;49858;48.956;9.076;2023-09-19T03:50:19;98483.38;;;18.16;100.00
63715;BME280;49858;48.956;9.076;2023-09-19T03:52:48;98490.69;;;17.99;100.00
63715;BME280;49858;48.956;9.076;2023-09-19T03:55:18;98494.56;;;17.57;100.00
63715;BME280;49858;48.956;9.076;2023-09-19T03:57:47;98506.00;;;17.70;100.00
63715;BME280;49858;48.956;9.076;2023-09-19T04:00:16;98519.25;;;17.48;100.00
63715;BME280;49858;48.956;9.076;2023-09-19T04:02:47;98530.75;;;17.53;100.00
63715;BME280;49858;48.956;9.076;2023-09-19T04:05:16;98523.91;;;16.88;100.00
63715;BME280;49858;48.956;9.076;2023-09-19T04:07:45;98528.63;;;16.98;100.00
63715;BME280;49858;48.956;9.076;2023-09-19T04:10:13;98529.50;;;16.81;100.00
63715;BME280;49858;48.956;9.076;2023-09-19T04:12:51;98532.34;;;16.52;100.00
63715;BME280;49858;48.956;9.076;2023-09-19T04:15:20;98533.50;;;16.76;100.00
63715;BME280;49858;48.956;9.076;2023-09-19T04:17:50;98529.50;;;16.81;100.00
63715;BME280;49858;48.956;9.076;2023-09-19T04:20:18;98537.31;;;17.18;100.00
63715;BME280;49858;48.956;9.076;2023-09-19T04:22:46;98537.31;;;17.15;100.00
63715;BME280;49858;48.956;9.076;2023-09-19T04:25:14;98528.63;;;16.98;100.00
63715;BME280;49858;48.956;9.076;2023-09-19T04:27:43;98533.09;;;17.55;100.00
63715;BME280;49858;48.956;9.076;2023-09-19T04:30:13;98531.75;;;17.88;100.00
63715;BME280;49858;48.956;9.076;2023-09-19T04:32:41;98531.84;;;17.74;100.00
63715;BME280;49858;48.956;9.076;2023-09-19T04:35:10;98539.78;;;17.75;100.00
63715;BME280;49858;48.956;9.076;2023-09-19T04:37:39;98544.25;;;18.10;100.00
63715;BME280;49858;48.956;9.076;2023-09-19T04:40:09;98541.00;;;18.64;100.00
63715;BME280;49858;48.956;9.076;2023-09-19T04:42:40;98529.66;;;18.82;100.00
63715;BME280;49858;48.956;9.076;2023-09-19T04:45:09;98526.16;;;18.78;100.00
63715;BME280;49858;48.956;9.076;2023-09-19T04:47:39;98531.19;;;19.21;100.00
63715;BME280;49858;48.956;9.076;2023-09-19T04:50:08;98530.78;;;18.50;100.00
63715;BME280;49858;48.956;9.076;2023-09-19T04:52:40;98530.50;;;18.79;100.00
63715;BME280;49858;48.956;9.076;2023-09-19T04:55:12;98546.66;;;18.12;100.00
63715;BME280;49858;48.956;9.076;2023-09-19T04:57:43;98549.47;;;18.05;100.00
63715;BME280;49858;48.956;9.076;2023-09-19T05:00:13;98552.97;;;17.57;100.00
63715;BME280;49858;48.956;9.076;2023-09-19T05:02:45;98556.69;;;17.32;100.00
63715;BME280;49858;48.956;9.076;2023-09-19T05:05:13;98577.00;;;17.19;100.00
63715;BME280;49858;48.956;9.076;2023-09-19T05:07:45;98585.03;;;16.95;100.00
63715;BME280;49858;48.956;9.076;2023-09-19T05:10:13;98586.59;;;17.03;100.00
63715;BME280;49858;48.956;9.076;2023-09-19T05:12:42;98592.16;;;16.93;100.00
63715;BME280;49858;48.956;9.076;2023-09-19T05:15:13;98601.28;;;17.04;100.00
63715;BME280;49858;48.956;9.076;2023-09-19T05:17:49;98599.97;;;17.30;100.00
63715;BME280;49858;48.956;9.076;2023-09-19T05:20:22;98606.25;;;17.48;100.00
63715;BME280;49858;48.956;9.076;2023-09-19T05:22:59;98608.38;;;17.16;100.00
63715;BME280;49858;48.956;9.076;2023-09-19T05:25:30;98611.66;;;16.89;100.00
63715;BME280;49858;48.956;9.076;2023-09-19T05:28:04;98620.63;;;17.32;100.00
63715;BME280;49858;48.956;9.076;2023-09-19T05:30:34;98617.13;;;17.10;100.00
63715;BME280;49858;48.956;9.076;2023-09-19T05:33:04;98619.53;;;17.05;100.00
63715;BME280;49858;48.956;9.076;2023-09-19T05:35:33;98625.09;;;17.05;100.00
63715;BME280;49858;48.956;9.076;2023-09-19T05:38:01;98626.22;;;17.25;100.00
63715;BME280;49858;48.956;9.076;2023-09-19T05:40:29;98623.84;;;17.27;100.00
63715;BME280;49858;48.956;9.076;2023-09-19T05:42:57;98623.84;;;17.24;100.00
63715;BME280;49858;48.956;9.076;2023-09-19T05:45:27;98621.06;;;17.17;100.00
63715;BME280;49858;48.956;9.076;2023-09-19T05:47:55;98616.59;;;17.41;100.00
63715;BME280;49858;48.956;9.076;2023-09-19T05:50:32;98624.69;;;17.03;100.00
63715;BME280;49858;48.956;9.076;2023-09-19T05:53:00;98628.28;;;17.03;100.00
63715;BME280;49858;48.956;9.076;2023-09-19T05:55:28;98615.13;;;17.15;100.00
63715;BME280;49858;48.956;9.076;2023-09-19T05:57:55;98625.47;;;17.18;100.00
63715;BME280;49858;48.956;9.076;2023-09-19T06:00:24;98619.53;;;17.01;100.00
63715;BME280;49858;48.956;9.076;2023-09-19T06:02:55;98624.25;;;17.19;100.00
63715;BME280;49858;48.956;9.076;2023-09-19T06:05:23;98626.22;;;17.22;100.00
63715;BME280;49858;48.956;9.076;2023-09-19T06:07:53;98631.38;;;17.27;100.00
63715;BME280;49858;48.956;9.076;2023-09-19T06:10:21;98627.03;;;17.22;100.00
63715;BME280;49858;48.956;9.076;2023-09-19T06:12:49;98630.66;;;17.08;100.00
63715;BME280;49858;48.956;9.076;2023-09-19T06:15:17;98635.41;;;17.08;100.00
63715;BME280;49858;48.956;9.076;2023-09-19T06:17:47;98639.75;;;17.16;100.00
63715;BME280;49858;48.956;9.076;2023-09-19T06:20:15;98641.41;;;16.92;100.00
63715;BME280;49858;48.956;9.076;2023-09-19T06:22:45;98645.78;;;16.86;100.00
63715;BME280;49858;48.956;9.076;2023-09-19T06:25:16;98631.78;;;17.25;100.00
63715;BME280;49858;48.956;9.076;2023-09-19T06:27:46;98632.59;;;17.19;100.00
63715;BME280;49858;48.956;9.076;2023-09-19T06:30:15;98635.34;;;17.26;100.00
63715;BME280;49858;48.956;9.076;2023-09-19T06:32:44;98626.25;;;17.15;100.00
63715;BME280;49858;48.956;9.076;2023-09-19T06:35:14;98632.63;;;17.04;100.00
63715;BME280;49858;48.956;9.076;2023-09-19T06:37:42;98640.13;;;17.22;100.00
63715;BME280;49858;48.956;9.076;2023-09-19T06:40:12;98642.81;;;17.47;100.00
63715;BME280;49858;48.956;9.076;2023-09-19T06:42:43;98640.75;;;17.65;100.00
63715;BME280;49858;48.956;9.076;2023-09-19T06:45:12;98645.13;;;17.66;100.00
63715;BME280;49858;48.956;9.076;2023-09-19T06:47:44;98638.91;;;17.26;100.00
63715;BME280;49858;48.956;9.076;2023-09-19T06:50:16;98637.22;;;17.57;100.00
63715;BME280;49858;48.956;9.076;2023-09-19T06:52:46;98643.97;;;17.56;100.00
63715;BME280;49858;48.956;9.076;2023-09-19T06:55:17;98650.72;;;17.55;100.00
63715;BME280;49858;48.956;9.076;2023-09-19T06:57:48;98656.25;;;17.62;100.00
63715;BME280;49858;48.956;9.076;2023-09-19T07:00:16;98654.03;;;18.06;100.00
63715;BME280;49858;48.956;9.076;2023-09-19T07:02:54;98661.06;;;18.25;100.00
63715;BME280;49858;48.956;9.076;2023-09-19T07:05:22;98679.34;;;17.56;100.00
63715;BME280;49858;48.956;9.076;2023-09-19T07:07:50;98677.81;;;17.33;100.00
63715;BME280;49858;48.956;9.076;2023-09-19T07:10:18;98683.69;;;17.57;100.00
63715;BME280;49858;48.956;9.076;2023-09-19T07:12:54;98679.44;;;17.27;100.00
63715;BME280;49858;48.956;9.076;2023-09-19T07:15:22;98677.88;;;17.16;100.00
63715;BME280;49858;48.956;9.076;2023-09-19T07:17:54;98679.44;;;17.27;100.00
63715;BME280;49858;48.956;9.076;2023-09-19T07:20:24;98675.81;;;17.37;100.00
63715;BME280;49858;48.956;9.076;2023-09-19T07:22:53;98688.16;;;17.29;100.00
63715;BME280;49858;48.956;9.076;2023-09-19T07:25:21;98690.81;;;17.76;100.00
63715;BME280;49858;48.956;9.076;2023-09-19T07:27:51;98697.28;;;17.37;100.00
63715;BME280;49858;48.956;9.076;2023-09-19T07:30:19;98702.00;;;17.44;100.00
63715;BME280;49858;48.956;9.076;2023-09-19T07:32:47;98695.03;;;18.02;100.00
63715;BME280;49858;48.956;9.076;2023-09-19T07:35:15;98699.16;;;17.76;100.00
63715;BME280;49858;48.956;9.076;2023-09-19T07:37:43;98704.28;;;17.81;100.00
63715;BME280;49858;48.956;9.076;2023-09-19T07:40:17;98705.34;;;18.08;100.00
63715;BME280;49858;48.956;9.076;2023-09-19T07:42:45;98696.75;;;17.78;100.00
63715;BME280;49858;48.956;9.076;2023-09-19T07:45:19;98699.97;;;17.55;100.00
63715;BME280;49858;48.956;9.076;2023-09-19T07:47:48;98698.41;;;17.57;100.00
63715;BME280;49858;48.956;9.076;2023-09-19T07:50:17;98707.16;;;17.52;100.00
63715;BME280;49858;48.956;9.076;2023-09-19T07:52:46;98725.38;;;17.71;100.00
63715;BME280;49858;48.956;9.076;2023-09-19T07:55:14;98725.75;;;17.84;100.00
63715;BME280;49858;48.956;9.076;2023-09-19T07:57:44;98722.84;;;18.05;100.00
63715;BME280;49858;48.956;9.076;2023-09-19T08:00:16;98721.50;;;18.31;100.00
63715;BME280;49858;48.956;9.076;2023-09-19T08:02:45;98720.06;;;18.68;100.00
63715;BME280;49858;48.956;9.076;2023-09-19T08:05:22;98728.66;;;18.32;100.00
63715;BME280;49858;48.956;9.076;2023-09-19T08:07:50;98721.56;;;18.83;100.00
63715;BME280;49858;48.956;9.076;2023-09-19T08:10:19;98729.03;;;18.34;100.00
63715;BME280;49858;48.956;9.076;2023-09-19T08:12:48;98727.63;;;19.16;100.00
63715;BME280;49858;48.956;9.076;2023-09-19T08:15:22;98734.38;;;18.67;100.00
63715;BME280;49858;48.956;9.076;2023-09-19T08:17:52;98721.66;;;19.14;100.00
63715;BME280;49858;48.956;9.076;2023-09-19T08:20:20;98733.72;;;19.00;100.00
63715;BME280;49858;48.956;9.076;2023-09-19T08:22:49;98729.38;;;18.99;100.00
63715;BME280;49858;48.956;9.076;2023-09-19T08:25:19;98725.63;;;18.68;100.00
63715;BME280;49858;48.956;9.076;2023-09-19T08:27:47;98722.03;;;19.20;100.00
63715;BME280;49858;48.956;9.076;2023-09-19T08:30:18;98737.09;;;18.81;100.00
63715;BME280;49858;48.956;9.076;2023-09-19T08:32:56;98744.41;;;19.09;100.00
63715;BME280;49858;48.956;9.076;2023-09-19T08:35:28;98720.34;;;19.98;100.00
63715;BME280;49858;48.956;9.076;2023-09-19T08:37:55;98725.97;;;19.63;100.00
63715;BME280;49858;48.956;9.076;2023-09-19T08:40:24;98730.44;;;19.88;100.00
63715;BME280;49858;48.956;9.076;2023-09-19T08:42:57;98722.69;;;19.99;100.00
63715;BME280;49858;48.956;9.076;2023-09-19T08:45:25;98728.41;;;19.92;100.00
63715;BME280;49858;48.956;9.076;2023-09-19T08:48:02;98729.94;;;19.97;100.00
63715;BME280;49858;48.956;9.076;2023-09-19T08:50:36;98729.19;;;19.92;100.00
63715;BME280;49858;48.956;9.076;2023-09-19T08:53:11;98735.22;;;19.15;100.00
63715;BME280;49858;48.956;9.076;2023-09-19T08:55:43;98737.78;;;19.33;100.00
63715;BME280;49858;48.956;9.076;2023-09-19T08:58:16;98738.16;;;19.39;100.00
63715;BME280;49858;48.956;9.076;2023-09-19T09:00:52;98729.53;;;19.23;100.00
63715;BME280;49858;48.956;9.076;2023-09-19T09:03:22;98743.13;;;19.21;100.00
63715;BME280;49858;48.956;9.076;2023-09-19T09:05:51;98750.06;;;19.02;100.00
63715;BME280;49858;48.956;9.076;2023-09-19T09:08:20;98747.59;;;19.11;100.00
63715;BME280;49858;48.956;9.076;2023-09-19T09:10:49;98749.84;;;19.23;100.00
63715;BME280;49858;48.956;9.076;2023-09-19T09:13:18;98735.84;;;20.02;100.00
63715;BME280;49858;48.956;9.076;2023-09-19T09:15:46;98746.00;;;19.48;100.00
63715;BME280;49858;48.956;9.076;2023-09-19T09:18:14;98746.56;;;19.73;100.00
63715;BME280;49858;48.956;9.076;2023-09-19T09:20:45;98756.63;;;19.22;100.00
63715;BME280;49858;48.956;9.076;2023-09-19T09:23:15;98750.22;;;19.66;100.00
63715;BME280;49858;48.956;9.076;2023-09-19T09:25:47;98752.56;;;20.06;100.00
63715;BME280;49858;48.956;9.076;2023-09-19T09:28:20;98761.13;;;19.12;100.00
63715;BME280;49858;48.956;9.076;2023-09-19T09:30:48;98758.97;;;19.69;100.00
63715;BME280;49858;48.956;9.076;2023-09-19T09:33:17;98767.97;;;19.83;100.00
63715;BME280;49858;48.956;9.076;2023-09-19T09:35:51;98757.88;;;19.59;100.00
63715;BME280;49858;48.956;9.076;2023-09-19T09:38:25;98755.66;;;19.81;100.00
63715;BME280;49858;48.956;9.076;2023-09-19T09:40:54;98753.56;;;20.19;100.00
63715;BME280;49858;48.956;9.076;2023-09-19T09:43:30;98756.50;;;19.78;100.00
63715;BME280;49858;48.956;9.076;2023-09-19T09:46:10;98752.28;;;19.59;100.00
63715;BME280;49858;48.956;9.076;2023-09-19T09:49:10;98756.50;;;19.78;100.00
63715;BME280;49858;48.956;9.076;2023-09-19T09:51:48;98748.25;;;19.67;100.00
63715;BME280;49858;48.956;9.076;2023-09-19T09:54:29;98745.91;;;19.96;100.00
63715;BME280;49858;48.956;9.076;2023-09-19T09:57:04;98740.50;;;20.39;100.00
63715;BME280;49858;48.956;9.076;2023-09-19T09:59:49;98731.81;;;19.73;100.00
63715;BME280;49858;48.956;9.076;2023-09-19T10:02:18;98729.03;;;20.34;100.00
63715;BME280;49858;48.956;9.076;2023-09-19T10:04:52;98744.44;;;19.47;100.00
63715;BME280;49858;48.956;9.076;2023-09-19T10:07:29;98734.94;;;19.78;100.00
63715;BME280;49858;48.956;9.076;2023-09-19T10:10:03;98749.25;;;19.80;100.00
63715;BME280;49858;48.956;9.076;2023-09-19T10:12:44;98745.78;;;20.03;100.00
63715;BME280;49858;48.956;9.076;2023-09-19T10:15:17;98743.31;;;20.39;100.00
63715;BME280;49858;48.956;9.076;2023-09-19T10:17:47;98749.34;;;19.35;100.00
63715;BME280;49858;48.956;9.076;2023-09-19T10:20:17;98736.75;;;20.23;100.00
63715;BME280;49858;48.956;9.076;2023-09-19T10:23:08;98735.28;;;20.14;100.00
63715;BME280;49858;48.956;9.076;2023-09-19T10:25:38;98733.47;;;20.58;100.00
63715;BME280;49858;48.956;9.076;2023-09-19T10:28:08;98738.66;;;21.07;100.00
63715;BME280;49858;48.956;9.076;2023-09-19T10:30:41;98737.88;;;21.06;100.00
63715;BME280;49858;48.956;9.076;2023-09-19T10:33:11;98728.69;;;21.06;100.00
63715;BME280;49858;48.956;9.076;2023-09-19T10:35:42;98744.25;;;20.29;100.00
63715;BME280;49858;48.956;9.076;2023-09-19T10:38:13;98726.81;;;20.76;100.00
63715;BME280;49858;48.956;9.076;2023-09-19T10:40:48;98735.28;;;20.41;100.00
63715;BME280;49858;48.956;9.076;2023-09-19T10:43:18;98739.75;;;20.08;100.00
63715;BME280;49858;48.956;9.076;2023-09-19T10:45:49;98733.56;;;20.24;100.00
63715;BME280;49858;48.956;9.076;2023-09-19T10:48:20;98734.78;;;21.01;100.00
63715;BME280;49858;48.956;9.076;2023-09-19T10:51:07;98744.69;;;21.29;100.00
63715;BME280;49858;48.956;9.076;2023-09-19T10:53:43;98743.69;;;22.22;100.00
63715;BME280;49858;48.956;9.076;2023-09-19T10:56:19;98729.19;;;21.67;100.00
63715;BME280;49858;48.956;9.076;2023-09-19T10:58:49;98739.97;;;22.45;100.00
63715;BME280;49858;48.956;9.076;2023-09-19T11:01:18;98730.13;;;22.37;100.00
63715;BME280;49858;48.956;9.076;2023-09-19T11:03:47;98730.59;;;21.95;100.00
63715;BME280;49858;48.956;9.076;2023-09-19T11:06:20;98726.84;;;23.07;100.00
63715;BME280;49858;48.956;9.076;2023-09-19T11:08:58;98724.75;;;22.95;100.00
63715;BME280;49858;48.956;9.076;2023-09-19T11:11:45;98729.91;;;23.58;100.00
63715;BME280;49858;48.956;9.076;2023-09-19T11:14:44;98734.22;;;23.46;100.00
63715;BME280;49858;48.956;9.076;2023-09-19T11:17:42;98733.75;;;22.54;100.00
63715;BME280;49858;48.956;9.076;2023-09-19T11:20:31;98720.47;;;23.81;100.00
63715;BME280;49858;48.956;9.076;2023-09-19T11:23:21;98718.69;;;21.72;100.00
63715;BME280;49858;48.956;9.076;2023-09-19T11:25:54;98714.59;;;21.96;100.00
63715;BME280;49858;48.956;9.076;2023-09-19T11:28:35;98704.22;;;22.65;100.00
63715;BME280;49858;48.956;9.076;2023-09-19T11:31:41;98723.00;;;21.76;100.00
63715;BME280;49858;48.956;9.076;2023-09-19T11:40:29;98690.81;;;22.04;100.00
63715;BME280;49858;48.956;9.076;2023-09-19T11:42:59;98703.94;;;22.27;100.00
63715;BME280;49858;48.956;9.076;2023-09-19T11:46:06;98725.38;;;21.78;100.00
63715;BME280;49858;48.956;9.076;2023-09-19T11:48:43;98700.25;;;21.54;100.00
63715;BME280;49858;48.956;9.076;2023-09-19T11:51:13;98697.94;;;22.94;100.00
63715;BME280;49858;48.956;9.076;2023-09-19T11:53:50;98689.91;;;23.54;100.00
63715;BME280;49858;48.956;9.076;2023-09-19T11:56:19;98678.75;;;23.80;100.00
63715;BME280;49858;48.956;9.076;2023-09-19T11:58:50;98684.13;;;24.41;100.00
63715;BME280;49858;48.956;9.076;2023-09-19T12:01:23;98684.28;;;25.11;100.00
63715;BME280;49858;48.956;9.076;2023-09-19T12:03:55;98679.50;;;25.55;100.00
63715;BME280;49858;48.956;9.076;2023-09-19T12:06:25;98688.28;;;24.62;100.00
63715;BME280;49858;48.956;9.076;2023-09-19T12:08:53;98680.75;;;24.34;100.00
63715;BME280;49858;48.956;9.076;2023-09-19T12:11:22;98667.03;;;24.23;100.00
63715;BME280;49858;48.956;9.076;2023-09-19T12:13:52;98670.56;;;23.73;100.00
63715;BME280;49858;48.956;9.076;2023-09-19T12:16:23;98686.44;;;23.05;100.00
63715;BME280;49858;48.956;9.076;2023-09-19T12:18:52;98677.94;;;23.08;100.00
63715;BME280;49858;48.956;9.076;2023-09-19T12:21:27;98665.69;;;24.40;100.00
63715;BME280;49858;48.956;9.076;2023-09-19T12:24:07;98660.28;;;24.59;100.00
63715;BME280;49858;48.956;9.076;2023-09-19T12:26:41;98660.06;;;25.13;100.00
63715;BME280;49858;48.956;9.076;2023-09-19T12:29:15;98659.66;;;24.89;99.74
63715;BME280;49858;48.956;9.076;2023-09-19T12:31:52;98660.22;;;23.69;100.00
63715;BME280;49858;48.956;9.076;2023-09-19T12:34:23;98660.38;;;24.30;100.00
63715;BME280;49858;48.956;9.076;2023-09-19T12:37:04;98651.53;;;24.18;99.59
63715;BME280;49858;48.956;9.076;2023-09-19T12:39:42;98654.81;;;22.88;100.00
63715;BME280;49858;48.956;9.076;2023-09-19T12:42:12;98640.47;;;23.86;100.00
63715;BME280;49858;48.956;9.076;2023-09-19T12:44:44;98645.19;;;24.27;100.00
63715;BME280;49858;48.956;9.076;2023-09-19T12:47:14;98655.06;;;23.52;100.00
63715;BME280;49858;48.956;9.076;2023-09-19T12:50:06;98640.97;;;24.83;100.00
63715;BME280;49858;48.956;9.076;2023-09-19T12:52:40;98636.63;;;25.82;93.38
63715;BME280;49858;48.956;9.076;2023-09-19T12:55:20;98644.09;;;24.50;100.00
63715;BME280;49858;48.956;9.076;2023-09-19T12:57:56;98639.56;;;24.27;100.00
63715;BME280;49858;48.956;9.076;2023-09-19T13:00:33;98638.72;;;23.21;100.00
63715;BME280;49858;48.956;9.076;2023-09-19T13:03:16;98630.94;;;24.94;100.00
63715;BME280;49858;48.956;9.076;2023-09-19T13:05:48;98634.03;;;26.28;94.70
63715;BME280;49858;48.956;9.076;2023-09-19T13:08:21;98646.53;;;25.43;98.87
63715;BME280;49858;48.956;9.076;2023-09-19T13:11:08;98639.50;;;24.56;99.68
63715;BME280;49858;48.956;9.076;2023-09-19T13:13:42;98642.78;;;25.68;95.84
63715;BME280;49858;48.956;9.076;2023-09-19T13:16:17;98634.94;;;25.06;98.31
63715;BME280;49858;48.956;9.076;2023-09-19T13:18:50;98635.19;;;24.26;100.00
63715;BME280;49858;48.956;9.076;2023-09-19T13:21:28;98639.00;;;23.52;100.00